createdAt,value
2022-08-20T00:01:13.007Z,21.49
2022-08-20T00:16:17.086Z,21.28
2022-08-20T00:31:22.554Z,21.23
2022-08-20T00:46:31.690Z,21.06
2022-08-20T01:01:41.978Z,21.28
2022-08-20T01:17:02.563Z,21.26
2022-08-20T01:32:05.445Z,21.25
2022-08-20T01:47:15.931Z,21.39
2022-08-20T02:02:18.065Z,21.50
2022-08-20T02:17:23.362Z,21.46
2022-08-20T02:32:33.465Z,21.38
2022-08-20T02:47:36.279Z,21.32
2022-08-20T03:02:38.142Z,21.28
2022-08-20T03:17:40.066Z,21.19
2022-08-20T03:32:42.802Z,21.17
2022-08-20T03:47:44.684Z,21.29
2022-08-20T04:02:47.144Z,21.45
2022-08-20T04:17:50.651Z,21.57
2022-08-20T04:32:53.121Z,21.97
2022-08-20T04:47:56.242Z,22.17
2022-08-20T05:02:58.297Z,22.49
2022-08-20T05:18:02.671Z,22.59
2022-08-20T05:33:06.626Z,22.72
2022-08-20T05:48:11.937Z,22.59
2022-08-20T06:03:32.471Z,22.63
2022-08-20T06:18:36.031Z,22.92
2022-08-20T06:33:38.162Z,23.71
2022-08-20T06:48:40.040Z,24.88
2022-08-20T07:03:55.281Z,25.96
2022-08-20T07:18:58.646Z,26.91
2022-08-20T07:34:00.901Z,26.35
2022-08-20T07:49:05.526Z,27.32
2022-08-20T08:04:07.546Z,27.91
2022-08-20T08:19:12.152Z,28.07
2022-08-20T08:34:14.336Z,29.34
2022-08-20T08:49:24.717Z,30.25
2022-08-20T09:04:40.073Z,31.01
2022-08-20T09:19:42.002Z,31.30
2022-08-20T09:34:47.387Z,31.95
2022-08-20T09:49:50.848Z,32.22
2022-08-20T10:04:52.802Z,32.66
2022-08-20T10:20:08.785Z,33.11
2022-08-20T10:35:10.995Z,33.65
2022-08-20T10:50:16.373Z,34.16
2022-08-20T11:05:18.414Z,35.11
2022-08-20T11:20:23.761Z,34.78
2022-08-20T11:35:43.473Z,35.43
2022-08-20T11:50:50.130Z,34.10
2022-08-20T12:05:52.157Z,32.70
2022-08-20T12:20:54.433Z,31.49
2022-08-20T12:35:58.214Z,30.86
2022-08-20T12:51:00.102Z,30.57
2022-08-20T13:06:02.205Z,29.77
2022-08-20T13:21:04.130Z,28.94
2022-08-20T13:36:06.333Z,27.97
2022-08-20T13:51:08.221Z,27.30
2022-08-20T14:06:10.273Z,26.54
2022-08-20T15:13:32.001Z,20.93
2022-08-20T15:28:33.897Z,20.62
2022-08-20T15:43:35.977Z,20.60
2022-08-20T15:58:48.807Z,20.88
2022-08-20T16:13:57.450Z,20.56
2022-08-20T16:29:20.461Z,20.59
2022-08-20T16:44:25.410Z,20.64
2022-08-20T16:59:31.487Z,20.76
2022-08-20T17:14:48.462Z,20.90
2022-08-20T17:29:56.618Z,20.87
2022-08-20T17:45:14.373Z,20.89
2022-08-20T18:00:23.779Z,20.87
2022-08-20T18:15:32.858Z,21.06
2022-08-20T18:30:35.133Z,21.25
2022-08-20T18:45:37.143Z,21.25
2022-08-20T19:00:45.211Z,21.25
2022-08-20T19:15:54.408Z,21.25
2022-08-20T19:30:57.150Z,21.22
2022-08-20T19:45:59.274Z,21.14
2022-08-20T20:01:03.668Z,21.04
2022-08-20T20:16:06.193Z,20.95
2022-08-20T20:31:11.027Z,20.94
2022-08-20T20:46:20.472Z,20.93
2022-08-20T21:01:41.422Z,20.85
2022-08-20T21:16:44.993Z,20.85
2022-08-20T21:31:47.197Z,20.83
2022-08-20T21:46:50.690Z,20.66
2022-08-20T22:01:52.611Z,20.45
2022-08-20T22:16:54.739Z,20.41
2022-08-20T22:31:56.771Z,20.32
2022-08-20T22:47:02.429Z,20.15
2022-08-20T23:02:08.613Z,20.05
2022-08-20T23:17:14.535Z,19.99
2022-08-20T23:32:16.475Z,19.90
2022-08-20T23:47:21.591Z,19.77
